createdAt,value
2023-04-26T00:01:29.366Z,6.60
2023-04-26T00:03:56.443Z,8.68
2023-04-26T00:06:23.684Z,7.53
2023-04-26T00:08:50.289Z,4.53
2023-04-26T00:11:16.909Z,7.20
2023-04-26T00:13:43.331Z,8.17
2023-04-26T00:16:09.802Z,6.03
2023-04-26T00:18:36.214Z,4.45
2023-04-26T00:21:02.747Z,6.35
2023-04-26T00:23:29.183Z,5.85
2023-04-26T00:25:57.513Z,4.33
2023-04-26T00:28:23.933Z,4.35
2023-04-26T00:30:51.200Z,3.90
2023-04-26T00:33:17.683Z,8.32
2023-04-26T00:35:44.386Z,5.93
2023-04-26T00:38:11.055Z,5.50
2023-04-26T00:40:37.513Z,9.15
2023-04-26T00:43:04.065Z,6.70
2023-04-26T00:45:31.054Z,4.10
2023-04-26T00:48:01.830Z,6.20
2023-04-26T00:50:29.757Z,4.57
2023-04-26T00:52:57.622Z,6.20
2023-04-26T00:55:26.364Z,5.63
2023-04-26T00:57:52.952Z,3.45
2023-04-26T01:00:19.504Z,6.20
2023-04-26T01:02:46.039Z,5.17
2023-04-26T01:05:12.889Z,4.75
2023-04-26T01:07:39.851Z,5.55
2023-04-26T01:10:06.923Z,8.93
2023-04-26T01:12:33.434Z,5.25
2023-04-26T01:15:00.567Z,3.60
2023-04-26T01:17:27.124Z,7.78
2023-04-26T01:19:53.733Z,5.97
2023-04-26T01:22:20.214Z,5.80
2023-04-26T01:24:50.461Z,5.35
2023-04-26T01:27:17.504Z,6.47
2023-04-26T01:29:43.948Z,7.38
2023-04-26T01:32:11.880Z,14.15
2023-04-26T01:34:38.224Z,6.88
2023-04-26T01:37:04.649Z,7.38
2023-04-26T01:39:31.005Z,6.87
2023-04-26T01:41:58.608Z,11.80
2023-04-26T01:44:25.045Z,7.90
2023-04-26T01:46:51.482Z,9.38
2023-04-26T01:49:18.182Z,5.15
2023-04-26T01:51:44.654Z,10.03
2023-04-26T01:54:11.207Z,6.25
2023-04-26T01:56:37.795Z,9.43
2023-04-26T01:59:04.280Z,9.40
2023-04-26T02:01:31.469Z,4.97
2023-04-26T02:03:58.023Z,7.30
2023-04-26T02:06:24.500Z,7.68
2023-04-26T02:08:52.376Z,10.90
2023-04-26T02:11:18.945Z,9.30
2023-04-26T02:13:45.335Z,8.93
2023-04-26T02:16:11.771Z,6.40
2023-04-26T02:18:38.186Z,7.60
2023-04-26T02:21:09.234Z,7.75
2023-04-26T02:23:35.600Z,7.53
2023-04-26T02:26:02.148Z,5.03
2023-04-26T02:28:28.692Z,4.67
2023-04-26T02:30:56.720Z,6.28
2023-04-26T02:33:23.722Z,6.10
2023-04-26T02:35:50.133Z,8.15
2023-04-26T02:38:17.459Z,9.88
2023-04-26T02:40:43.860Z,7.73
2023-04-26T02:43:10.415Z,7.43
2023-04-26T02:45:43.377Z,7.55
2023-04-26T02:48:09.874Z,8.25
2023-04-26T02:50:36.454Z,9.07
2023-04-26T02:53:03.617Z,8.30
2023-04-26T02:55:30.014Z,7.72
2023-04-26T02:57:56.477Z,7.82
2023-04-26T03:00:23.537Z,4.82
2023-04-26T03:02:50.037Z,11.23
2023-04-26T03:05:16.568Z,10.30
2023-04-26T03:07:42.966Z,4.28
2023-04-26T03:10:09.887Z,4.95
2023-04-26T03:12:36.669Z,7.57
2023-04-26T03:15:04.051Z,7.95
2023-04-26T03:17:30.571Z,4.50
2023-04-26T03:19:57.152Z,8.90
2023-04-26T03:22:23.774Z,6.72
2023-04-26T03:24:50.173Z,10.75
2023-04-26T03:27:16.698Z,8.60
2023-04-26T03:29:44.234Z,4.30
2023-04-26T03:32:12.807Z,8.57
2023-04-26T03:34:39.250Z,6.90
2023-04-26T03:37:05.632Z,8.43
2023-04-26T03:39:32.142Z,7.65
2023-04-26T03:41:58.644Z,8.07
2023-04-26T03:44:25.096Z,7.80
2023-04-26T03:46:51.982Z,6.03
2023-04-26T03:49:19.434Z,6.25
2023-04-26T03:51:45.904Z,6.68
2023-04-26T03:54:12.406Z,3.97
2023-04-26T03:56:40.029Z,12.38
2023-04-26T03:59:06.837Z,10.07
2023-04-26T04:01:33.241Z,8.10
2023-04-26T04:03:59.833Z,8.13
2023-04-26T04:06:26.823Z,9.23
2023-04-26T04:08:53.437Z,7.35
2023-04-26T04:11:20.357Z,9.75
2023-04-26T04:13:46.756Z,7.38
2023-04-26T04:16:13.235Z,9.57
2023-04-26T04:18:39.667Z,5.97
2023-04-26T04:21:06.681Z,7.38
2023-04-26T04:23:33.092Z,7.13
2023-04-26T04:25:59.562Z,7.32
2023-04-26T04:28:26.032Z,8.77
2023-04-26T04:30:52.438Z,8.07
2023-04-26T04:33:19.080Z,4.82
2023-04-26T04:35:45.516Z,9.85
2023-04-26T04:38:12.037Z,9.68
2023-04-26T04:40:38.473Z,9.68
2023-04-26T04:43:04.894Z,9.17
2023-04-26T04:45:31.259Z,7.55
2023-04-26T04:47:57.694Z,8.48
2023-04-26T04:50:24.204Z,5.63
2023-04-26T04:52:50.585Z,7.55
2023-04-26T04:55:16.955Z,6.90
2023-04-26T04:57:43.379Z,9.85
2023-04-26T05:00:10.771Z,9.13
2023-04-26T05:02:37.568Z,7.32
2023-04-26T05:05:05.351Z,8.57
2023-04-26T05:07:32.450Z,5.93
2023-04-26T05:09:59.663Z,7.57
2023-04-26T05:12:26.614Z,7.38
2023-04-26T05:14:53.298Z,5.85
2023-04-26T05:17:20.094Z,8.52
2023-04-26T05:19:46.653Z,7.17
2023-04-26T05:22:21.136Z,7.82
2023-04-26T05:24:48.155Z,6.57
2023-04-26T05:27:14.817Z,6.60
2023-04-26T05:29:41.740Z,6.93
2023-04-26T05:32:08.638Z,7.13
2023-04-26T05:34:35.354Z,7.65
2023-04-26T05:37:01.750Z,9.43
2023-04-26T05:39:28.165Z,9.52
2023-04-26T05:41:54.563Z,7.50
2023-04-26T05:44:20.951Z,7.30
2023-04-26T05:46:47.833Z,8.25
2023-04-26T05:49:14.261Z,13.02
2023-04-26T05:51:41.134Z,5.45
2023-04-26T05:54:07.696Z,13.50
2023-04-26T05:56:34.127Z,8.00
2023-04-26T05:59:00.558Z,7.00
2023-04-26T06:01:27.688Z,5.30
2023-04-26T06:03:58.074Z,7.95
2023-04-26T06:06:28.242Z,6.43
2023-04-26T06:08:54.901Z,6.47
2023-04-26T06:11:21.646Z,7.75
2023-04-26T06:13:48.374Z,7.93
2023-04-26T06:16:15.008Z,8.07
2023-04-26T06:18:41.952Z,7.45
2023-04-26T06:21:08.337Z,6.60
2023-04-26T06:23:34.810Z,6.72
2023-04-26T06:26:01.312Z,5.90
2023-04-26T06:28:27.660Z,6.60
2023-04-26T06:30:54.106Z,6.13
2023-04-26T06:33:20.524Z,5.33
2023-04-26T06:35:47.075Z,8.55
2023-04-26T06:38:13.550Z,4.65
2023-04-26T06:40:40.162Z,5.68
2023-04-26T06:43:06.702Z,5.40
2023-04-26T06:45:33.186Z,7.50
2023-04-26T06:48:00.913Z,4.55
2023-04-26T06:50:27.853Z,5.95
2023-04-26T06:52:54.511Z,5.75
2023-04-26T06:55:21.292Z,2.38
2023-04-26T06:57:47.830Z,3.97
2023-04-26T07:00:14.634Z,6.30
2023-04-26T07:02:41.379Z,5.78
2023-04-26T07:05:08.759Z,5.93
2023-04-26T07:07:35.717Z,4.85
2023-04-26T07:10:03.457Z,9.10
2023-04-26T07:12:29.860Z,3.92
2023-04-26T07:14:56.241Z,6.20
2023-04-26T07:17:22.765Z,5.28
2023-04-26T07:19:49.310Z,4.35
2023-04-26T07:22:15.720Z,4.40
2023-04-26T07:24:42.100Z,4.85
2023-04-26T07:27:08.497Z,5.82
2023-04-26T07:29:34.911Z,4.60
2023-04-26T07:32:01.365Z,5.68
2023-04-26T07:34:27.903Z,4.90
2023-04-26T07:36:54.313Z,6.55
2023-04-26T07:39:20.709Z,3.08
2023-04-26T07:41:50.004Z,3.65
2023-04-26T07:44:16.449Z,2.22
2023-04-26T07:46:42.818Z,5.90
2023-04-26T07:49:09.602Z,3.05
2023-04-26T07:51:36.978Z,2.72
2023-04-26T07:54:03.460Z,5.60
2023-04-26T07:56:29.835Z,5.05
2023-04-26T07:58:56.266Z,3.23
2023-04-26T08:01:22.724Z,3.20
2023-04-26T08:03:49.647Z,2.20
2023-04-26T08:06:16.759Z,1.75
2023-04-26T08:08:45.605Z,3.67
2023-04-26T08:11:12.119Z,2.77
2023-04-26T08:13:38.586Z,2.80
2023-04-26T08:16:06.074Z,4.22
2023-04-26T08:18:32.445Z,4.53
2023-04-26T08:20:58.830Z,2.85
2023-04-26T08:23:25.362Z,4.83
2023-04-26T08:25:52.002Z,2.83
2023-04-26T08:28:18.443Z,3.80
2023-04-26T08:30:44.980Z,2.20
2023-04-26T08:33:11.395Z,1.08
2023-04-26T08:35:37.935Z,1.07
2023-04-26T08:38:04.463Z,1.98
2023-04-26T08:40:31.584Z,0.85
2023-04-26T08:42:58.298Z,0.60
2023-04-26T08:45:24.741Z,2.22
2023-04-26T08:47:53.580Z,2.03
2023-04-26T08:50:22.723Z,3.75
2023-04-26T08:52:51.385Z,1.77
2023-04-26T08:55:20.078Z,3.30
2023-04-26T08:57:48.249Z,3.67
2023-04-26T09:00:16.227Z,1.07
2023-04-26T09:02:48.422Z,1.75
2023-04-26T09:05:15.039Z,5.90
2023-04-26T09:07:44.383Z,1.38
2023-04-26T09:10:12.752Z,2.35
2023-04-26T09:12:39.380Z,5.07
2023-04-26T09:15:10.685Z,3.38
2023-04-26T09:17:38.671Z,1.88
2023-04-26T09:20:23.281Z,1.23
2023-04-26T09:23:07.091Z,2.75
2023-04-26T09:25:33.870Z,3.70
2023-04-26T09:28:01.132Z,3.28
2023-04-26T09:30:28.654Z,1.90
2023-04-26T09:32:59.666Z,2.38
2023-04-26T09:35:27.942Z,2.42
2023-04-26T09:38:02.326Z,2.10
2023-04-26T09:40:50.937Z,3.00
2023-04-26T09:43:24.219Z,7.03
2023-04-26T09:45:58.331Z,1.25
2023-04-26T09:48:30.865Z,3.20
2023-04-26T09:51:03.512Z,3.23
2023-04-26T09:53:34.294Z,1.88
2023-04-26T09:56:09.452Z,1.88
2023-04-26T09:58:58.989Z,2.25
2023-04-26T10:01:31.274Z,2.72
2023-04-26T10:04:00.822Z,4.60
2023-04-26T10:06:28.240Z,3.97
2023-04-26T10:08:55.193Z,1.50
2023-04-26T10:11:22.640Z,1.88
2023-04-26T10:13:51.790Z,2.53
2023-04-26T10:16:20.857Z,1.10
2023-04-26T10:18:49.223Z,1.33
2023-04-26T10:21:28.604Z,1.58
2023-04-26T10:23:55.342Z,2.15
2023-04-26T10:26:59.587Z,1.90
2023-04-26T10:29:47.352Z,4.57
2023-04-26T10:32:17.321Z,2.92
2023-04-26T10:34:45.402Z,2.10
2023-04-26T10:37:16.403Z,2.80
2023-04-26T10:39:46.767Z,3.28
2023-04-26T10:42:26.654Z,2.17
2023-04-26T10:45:00.503Z,5.03
2023-04-26T10:47:31.864Z,3.80
2023-04-26T10:50:05.594Z,1.92
2023-04-26T10:52:32.930Z,1.45
2023-04-26T10:55:00.063Z,2.47
2023-04-26T10:57:56.276Z,2.15
2023-04-26T11:00:30.883Z,2.20
2023-04-26T11:03:03.008Z,4.20
2023-04-26T11:05:53.275Z,3.38
2023-04-26T11:08:21.937Z,1.83
2023-04-26T11:11:06.820Z,3.45
2023-04-26T11:13:35.839Z,3.85
2023-04-26T11:16:13.610Z,4.03
2023-04-26T11:18:47.626Z,3.50
2023-04-26T11:21:17.829Z,1.27
2023-04-26T11:23:54.119Z,2.78
2023-04-26T11:26:20.516Z,2.47
2023-04-26T11:28:48.966Z,0.77
2023-04-26T11:31:15.461Z,0.70
2023-04-26T11:33:42.065Z,3.33
2023-04-26T11:36:08.670Z,2.47
2023-04-26T11:38:35.209Z,1.15
2023-04-26T11:41:03.113Z,4.40
2023-04-26T11:43:36.967Z,3.08
2023-04-26T11:46:05.429Z,2.67
2023-04-26T11:48:33.534Z,1.70
2023-04-26T11:51:02.490Z,1.15
2023-04-26T11:53:40.416Z,0.82
2023-04-26T11:56:17.691Z,1.35
2023-04-26T11:58:48.536Z,1.43
2023-04-26T12:01:26.119Z,1.10
2023-04-26T12:03:54.633Z,1.85
2023-04-26T12:06:29.212Z,2.35
2023-04-26T12:08:56.693Z,3.45
2023-04-26T12:11:23.171Z,2.97
2023-04-26T12:13:49.610Z,2.25
2023-04-26T12:16:25.538Z,2.95
2023-04-26T12:18:54.414Z,1.75
2023-04-26T12:21:20.980Z,3.10
2023-04-26T12:23:48.915Z,1.67
2023-04-26T12:26:15.774Z,1.27
2023-04-26T12:28:42.282Z,2.05
2023-04-26T12:31:09.240Z,2.83
2023-04-26T12:33:36.090Z,2.92
2023-04-26T12:36:10.348Z,3.10
2023-04-26T12:38:37.255Z,3.75
2023-04-26T12:41:04.217Z,1.98
2023-04-26T12:43:30.688Z,1.38
2023-04-26T12:45:57.200Z,0.98
2023-04-26T12:48:23.795Z,0.80
2023-04-26T12:50:51.319Z,3.72
2023-04-26T12:53:18.565Z,3.33
2023-04-26T12:55:45.080Z,1.30
2023-04-26T12:58:11.712Z,1.75
2023-04-26T13:00:38.212Z,2.57
2023-04-26T13:03:04.935Z,1.92
2023-04-26T13:05:32.305Z,2.72
2023-04-26T13:08:02.193Z,5.68
2023-04-26T13:10:28.802Z,2.25
2023-04-26T13:12:55.861Z,4.80
2023-04-26T13:15:24.636Z,4.18
2023-04-26T13:17:51.102Z,1.77
2023-04-26T13:20:17.701Z,1.45
2023-04-26T13:22:44.146Z,3.20
2023-04-26T13:25:11.204Z,1.53
2023-04-26T13:27:37.751Z,3.03
2023-04-26T13:30:04.751Z,1.58
2023-04-26T13:32:31.967Z,3.80
2023-04-26T13:34:58.486Z,1.75
2023-04-26T13:37:24.988Z,3.57
2023-04-26T13:39:51.481Z,4.28
2023-04-26T13:42:18.336Z,4.25
2023-04-26T13:44:44.821Z,1.23
2023-04-26T13:47:11.235Z,2.38
2023-04-26T13:49:41.023Z,3.77
2023-04-26T13:52:07.518Z,2.30
2023-04-26T13:54:35.864Z,3.10
2023-04-26T13:57:02.817Z,2.08
2023-04-26T13:59:29.430Z,1.48
2023-04-26T14:01:58.808Z,2.30
2023-04-26T14:04:26.273Z,2.20
2023-04-26T14:06:52.994Z,2.55
2023-04-26T14:09:19.452Z,2.40
2023-04-26T14:11:49.453Z,1.35
2023-04-26T14:14:18.273Z,1.90
2023-04-26T14:16:44.819Z,2.58
2023-04-26T14:19:11.313Z,2.75
2023-04-26T14:21:37.698Z,4.05
2023-04-26T14:24:04.466Z,3.17
2023-04-26T14:26:31.476Z,3.87
2023-04-26T14:28:57.900Z,2.45
2023-04-26T14:31:26.066Z,2.28
2023-04-26T14:33:52.936Z,2.42
2023-04-26T14:36:19.979Z,4.63
2023-04-26T14:38:46.842Z,3.23
2023-04-26T14:41:17.409Z,2.33
2023-04-26T14:43:45.951Z,3.67
2023-04-26T14:46:13.291Z,3.42
2023-04-26T14:48:40.107Z,2.33
2023-04-26T14:51:06.738Z,3.50
2023-04-26T14:53:33.134Z,3.50
2023-04-26T14:56:00.376Z,1.88
2023-04-26T14:58:27.386Z,2.90
2023-04-26T15:00:54.303Z,2.03
2023-04-26T15:03:21.013Z,6.57
2023-04-26T15:05:47.880Z,0.90
2023-04-26T15:08:14.459Z,1.83
2023-04-26T15:10:40.863Z,2.40
2023-04-26T15:13:07.666Z,3.53
2023-04-26T15:15:34.129Z,2.83
2023-04-26T15:18:01.777Z,1.83
2023-04-26T15:20:28.190Z,2.33
2023-04-26T15:22:54.567Z,3.95
2023-04-26T15:25:21.069Z,3.35
2023-04-26T15:27:50.169Z,2.43
2023-04-26T15:30:16.582Z,4.53
2023-04-26T15:32:43.217Z,4.15
2023-04-26T15:35:13.483Z,1.58
2023-04-26T15:37:39.949Z,2.60
2023-04-26T15:40:10.347Z,2.90
2023-04-26T15:42:36.879Z,4.03
2023-04-26T15:45:03.448Z,2.72
2023-04-26T15:47:29.851Z,1.85
2023-04-26T15:50:01.686Z,2.33
2023-04-26T15:52:28.239Z,1.30
2023-04-26T15:54:55.381Z,1.23
2023-04-26T15:57:21.761Z,2.30
2023-04-26T15:59:48.717Z,3.33
2023-04-26T16:02:15.189Z,5.18
2023-04-26T16:04:42.012Z,3.73
2023-04-26T16:07:08.721Z,2.50
2023-04-26T16:09:36.026Z,1.00
2023-04-26T16:12:03.507Z,1.65
2023-04-26T16:14:31.151Z,6.03
2023-04-26T16:17:00.330Z,1.00
2023-04-26T16:19:26.680Z,1.73
2023-04-26T16:21:53.900Z,1.15
2023-04-26T16:24:20.355Z,2.53
2023-04-26T16:26:47.056Z,2.22
2023-04-26T16:29:13.932Z,3.23
2023-04-26T16:31:40.625Z,3.38
2023-04-26T16:34:07.013Z,5.07
2023-04-26T16:36:33.499Z,1.20
2023-04-26T16:38:59.858Z,3.00
2023-04-26T16:41:27.763Z,2.97
2023-04-26T16:43:55.100Z,3.72
2023-04-26T16:46:21.663Z,2.38
2023-04-26T16:48:48.605Z,1.50
2023-04-26T16:51:15.059Z,2.72
2023-04-26T16:53:42.352Z,2.13
2023-04-26T16:56:09.240Z,4.10
2023-04-26T16:58:35.659Z,2.10
2023-04-26T17:01:02.139Z,1.33
2023-04-26T17:03:28.923Z,2.60
2023-04-26T17:05:55.620Z,2.70
2023-04-26T17:08:22.086Z,5.50
2023-04-26T17:10:48.754Z,2.78
2023-04-26T17:13:15.737Z,2.00
2023-04-26T17:15:42.550Z,2.22
2023-04-26T17:18:09.694Z,3.57
2023-04-26T17:20:36.760Z,1.73
2023-04-26T17:23:04.280Z,3.80
2023-04-26T17:25:31.455Z,1.60
2023-04-26T17:27:58.245Z,2.40
2023-04-26T17:30:25.144Z,4.80
2023-04-26T17:32:51.601Z,4.00
2023-04-26T17:35:18.105Z,2.08
2023-04-26T17:37:49.570Z,2.78
2023-04-26T17:40:17.074Z,1.58
2023-04-26T17:42:43.556Z,4.40
2023-04-26T17:45:12.178Z,1.80
2023-04-26T17:47:40.398Z,8.10
2023-04-26T17:50:07.470Z,2.58
2023-04-26T17:52:33.928Z,3.03
2023-04-26T17:55:00.534Z,2.17
2023-04-26T17:57:26.893Z,2.92
2023-04-26T17:59:53.356Z,2.60
2023-04-26T18:02:19.825Z,2.50
2023-04-26T18:04:46.977Z,2.80
2023-04-26T18:07:14.803Z,5.33
2023-04-26T18:09:41.868Z,3.55
2023-04-26T18:12:08.727Z,2.03
2023-04-26T18:14:35.253Z,1.95
2023-04-26T18:17:01.781Z,5.35
2023-04-26T18:19:28.212Z,3.03
2023-04-26T18:21:54.628Z,4.68
2023-04-26T18:24:21.081Z,2.15
2023-04-26T18:26:47.881Z,2.78
2023-04-26T18:29:14.432Z,2.95
2023-04-26T18:31:40.972Z,2.00
2023-04-26T18:34:07.686Z,1.95
2023-04-26T18:36:34.169Z,2.63
2023-04-26T18:39:01.231Z,3.40
2023-04-26T18:41:27.854Z,3.42
2023-04-26T18:43:54.497Z,3.10
2023-04-26T18:46:21.356Z,4.55
2023-04-26T18:48:47.984Z,1.80
2023-04-26T18:51:14.484Z,3.80
2023-04-26T18:53:40.922Z,3.72
2023-04-26T18:56:07.413Z,2.77
2023-04-26T18:58:34.415Z,5.18
2023-04-26T19:01:01.032Z,2.65
2023-04-26T19:03:27.643Z,3.42
2023-04-26T19:05:54.689Z,3.17
2023-04-26T19:08:21.187Z,2.10
2023-04-26T19:10:47.899Z,2.38
2023-04-26T19:13:14.324Z,4.53
2023-04-26T19:15:40.810Z,1.40
2023-04-26T19:18:07.310Z,4.43
2023-04-26T19:20:33.730Z,1.70
2023-04-26T19:23:00.134Z,2.65
2023-04-26T19:25:27.191Z,4.30
2023-04-26T19:27:53.868Z,3.30
2023-04-26T19:30:20.355Z,2.47
2023-04-26T19:32:47.039Z,3.77
2023-04-26T19:35:13.440Z,4.53
2023-04-26T19:37:39.784Z,3.05
2023-04-26T19:40:07.376Z,5.13
2023-04-26T19:42:33.829Z,5.03
2023-04-26T19:45:00.454Z,3.37
2023-04-26T19:47:26.904Z,4.13
2023-04-26T19:49:54.042Z,6.47
2023-04-26T19:52:20.398Z,5.18
2023-04-26T19:54:46.861Z,3.35
2023-04-26T19:57:13.277Z,4.60
2023-04-26T19:59:39.684Z,4.40
2023-04-26T20:02:06.799Z,3.60
2023-04-26T20:04:33.335Z,3.45
2023-04-26T20:06:59.868Z,3.70
2023-04-26T20:09:26.261Z,4.30
2023-04-26T20:11:53.102Z,4.22
2023-04-26T20:14:19.551Z,5.22
2023-04-26T20:16:46.021Z,3.72
2023-04-26T20:19:12.472Z,4.35
2023-04-26T20:21:38.885Z,10.13
2023-04-26T20:24:05.650Z,3.95
2023-04-26T20:26:32.197Z,5.82
2023-04-26T20:28:58.626Z,5.47
2023-04-26T20:31:25.208Z,4.32
2023-04-26T20:33:51.610Z,4.60
2023-04-26T20:36:18.189Z,4.38
2023-04-26T20:38:44.622Z,6.25
2023-04-26T20:41:11.001Z,8.15
2023-04-26T20:43:37.347Z,3.72
2023-04-26T20:46:03.928Z,7.37
2023-04-26T20:48:30.541Z,5.57
2023-04-26T20:51:00.953Z,6.40
2023-04-26T20:53:28.108Z,5.68
2023-04-26T20:55:54.556Z,6.75
2023-04-26T20:58:20.990Z,4.17
2023-04-26T21:00:55.179Z,5.22
2023-04-26T21:03:22.009Z,4.75
2023-04-26T21:05:48.934Z,6.57
2023-04-26T21:08:15.416Z,7.03
2023-04-26T21:10:41.923Z,5.53
2023-04-26T21:13:08.487Z,4.53
2023-04-26T21:15:35.017Z,5.80
2023-04-26T21:18:01.776Z,6.60
2023-04-26T21:20:28.202Z,10.68
2023-04-26T21:22:54.596Z,5.50
2023-04-26T21:25:21.668Z,6.85
2023-04-26T21:27:48.771Z,6.07
2023-04-26T21:30:15.384Z,8.65
2023-04-26T21:32:41.908Z,6.32
2023-04-26T21:35:08.832Z,7.57
2023-04-26T21:37:35.297Z,4.90
2023-04-26T21:40:01.724Z,6.55
2023-04-26T21:42:28.096Z,7.85
2023-04-26T21:44:54.486Z,8.95
2023-04-26T21:47:21.039Z,4.57
2023-04-26T21:49:47.851Z,6.82
2023-04-26T21:52:14.529Z,3.90
2023-04-26T21:54:41.030Z,5.88
2023-04-26T21:57:07.449Z,4.93
2023-04-26T21:59:33.872Z,7.33
2023-04-26T22:02:01.120Z,6.07
2023-04-26T22:04:27.821Z,6.35
2023-04-26T22:06:54.255Z,6.80
2023-04-26T22:09:21.485Z,4.10
2023-04-26T22:11:47.980Z,5.77
2023-04-26T22:14:14.374Z,4.63
2023-04-26T22:16:40.919Z,4.55
2023-04-26T22:19:07.501Z,5.68
2023-04-26T22:21:33.899Z,4.53
2023-04-26T22:24:01.059Z,6.03
2023-04-26T22:26:27.610Z,5.78
2023-04-26T22:28:53.947Z,7.35
2023-04-26T22:31:20.556Z,12.65
2023-04-26T22:33:46.999Z,4.10
2023-04-26T22:36:13.447Z,3.77
2023-04-26T22:38:40.009Z,6.90
2023-04-26T22:41:07.514Z,5.38
2023-04-26T22:43:34.988Z,6.45
2023-04-26T22:46:01.791Z,6.25
2023-04-26T22:48:28.260Z,5.50
2023-04-26T22:50:54.648Z,4.03
2023-04-26T22:53:21.525Z,5.10
2023-04-26T22:55:47.992Z,6.68
2023-04-26T22:58:14.428Z,5.75
2023-04-26T23:00:41.036Z,5.43
2023-04-26T23:03:07.626Z,2.60
2023-04-26T23:05:34.118Z,4.70
2023-04-26T23:08:00.657Z,3.28
2023-04-26T23:10:27.271Z,4.47
2023-04-26T23:12:55.318Z,3.13
2023-04-26T23:15:21.877Z,3.85
2023-04-26T23:17:48.613Z,7.22
2023-04-26T23:20:15.765Z,3.47
2023-04-26T23:22:43.310Z,7.47
2023-04-26T23:25:10.244Z,3.40
2023-04-26T23:27:37.494Z,2.92
2023-04-26T23:30:04.637Z,2.90
2023-04-26T23:32:31.186Z,3.67
2023-04-26T23:34:57.632Z,6.68
2023-04-26T23:37:24.100Z,3.27
2023-04-26T23:39:50.493Z,7.97
2023-04-26T23:42:16.916Z,3.30
2023-04-26T23:44:43.287Z,3.05
2023-04-26T23:47:09.631Z,8.77
2023-04-26T23:49:36.028Z,4.03
2023-04-26T23:52:02.435Z,3.80
2023-04-26T23:54:29.018Z,2.78
2023-04-26T23:56:55.739Z,3.42
2023-04-26T23:59:23.090Z,3.00
